»·PEaware :: UAL2093 KSNA-KSFO

UAL2093 :: KSNA-KSFO

FLIGHT INFORMATION

Flight Status: Arrived
Operator:
United Airlines
More flights by this operator :: More flights under this callsign
Pilot: Will K. (13011)
Aircraft: Unknown
(B788)
More flights by this aircraft type
Origin: KSNA John Wayne-Orange Co
United States
Destination: KSFO San Francisco Intl
United States
More flights between these airports :: More routes between these airports
Route: HHERO3 IKAYE RIZIN SPLNT STOKD SERFR SERFR3
File this flight plan on PilotEdge
Remarks:
Altitude:
(Current/Filed)
34,000ft
Speed:
(Current/Filed)
490kts
Departed: 09-Oct-18 05:26 PM
Arrived: 09-Oct-18 06:25 PM
Distance/Time
Traveled:
323nm/0:59
Distance/Time
To Go:
Arrived

Flight Plot

Page will automatically refresh every two minutes.

Flight plan parsing failed; only flown route is shown


Map Options




Map Legend


Flown Route
Filed Route
Departure Airport
Arrival Airport
Navaid (VOR, NDB)
Fix

Horizontal Profiles

Position Reports

Time Latitude Longitude Heading Altitude Ground
Speed
09-Oct-18 16:57 33.676453 -117.864166 118 69ft 0kts
09-Oct-18 16:58 33.676453 -117.864166 118 69ft 0kts
09-Oct-18 16:59 33.676453 -117.864166 118 69ft 0kts
09-Oct-18 17:00 33.676453 -117.864166 118 69ft 0kts
09-Oct-18 17:01 33.676453 -117.864166 118 69ft 0kts
09-Oct-18 17:02 33.676453 -117.864166 118 69ft 0kts
09-Oct-18 17:03 33.676453 -117.864166 118 69ft 0kts
09-Oct-18 17:04 33.676453 -117.864166 118 69ft 0kts
09-Oct-18 17:05 33.676453 -117.864166 118 69ft 0kts
09-Oct-18 17:06 33.676453 -117.864166 118 69ft 0kts
09-Oct-18 17:07 33.676453 -117.864166 118 69ft 0kts
09-Oct-18 17:08 33.676453 -117.864166 118 69ft 0kts
09-Oct-18 17:09 33.676453 -117.864166 118 69ft 0kts
09-Oct-18 17:10 33.676453 -117.864166 118 69ft 0kts
09-Oct-18 17:11 33.676453 -117.864166 118 69ft 0kts
09-Oct-18 17:12 33.676453 -117.864166 118 69ft 0kts
09-Oct-18 17:13 33.676453 -117.864166 118 69ft 0kts
09-Oct-18 17:14 33.676453 -117.864166 118 69ft 0kts
09-Oct-18 17:15 33.676540 -117.864346 124 69ft 0kts
09-Oct-18 17:16 33.676540 -117.864346 124 69ft 0kts
09-Oct-18 17:17 33.676646 -117.864654 87 69ft 2kts
09-Oct-18 17:18 33.676271 -117.865112 27 69ft 1kts
09-Oct-18 17:19 33.676237 -117.865133 27 69ft 0kts
09-Oct-18 17:20 33.676240 -117.865131 27 69ft 0kts
09-Oct-18 17:21 33.676243 -117.865129 27 69ft 0kts
09-Oct-18 17:22 33.678147 -117.863945 27 69ft 13kts
09-Oct-18 17:23 33.680542 -117.862987 304 69ft 0kts
09-Oct-18 17:24 33.680544 -117.862991 304 69ft 0kts
09-Oct-18 17:25 33.680545 -117.862994 304 69ft 0kts
09-Oct-18 17:26 33.680801 -117.863498 299 69ft 11kts
09-Oct-18 17:27 33.681151 -117.865417 207 69ft 0kts
09-Oct-18 17:28 33.651724 -117.884389 209 1689ft 171kts
09-Oct-18 17:29 33.598944 -117.894937 187 4182ft 233kts
09-Oct-18 17:30 33.539996 -117.936877 221 4992ft 263kts
09-Oct-18 17:31 33.486516 -117.997313 234 5282ft 274kts
09-Oct-18 17:32 33.446020 -118.073574 238 9343ft 283kts
09-Oct-18 17:33 33.413761 -118.164273 278 11730ft 340kts
09-Oct-18 17:34 33.438201 -118.279034 292 14937ft 359kts
09-Oct-18 17:35 33.527707 -118.368720 321 18533ft 370kts
09-Oct-18 17:36 33.595533 -118.435436 318 20682ft 384kts
09-Oct-18 17:37 33.677451 -118.520268 318 22726ft 395kts
09-Oct-18 17:38 33.760824 -118.607392 318 22884ft 396kts
09-Oct-18 17:39 33.844534 -118.695188 318 24582ft 405kts
09-Oct-18 17:40 33.930914 -118.786024 318 26622ft 418kts
09-Oct-18 17:41 34.034311 -118.895052 317 28891ft 427kts
09-Oct-18 17:42 34.109764 -118.974863 317 30218ft 436kts
09-Oct-18 17:43 34.195572 -119.111341 301 31964ft 445kts
09-Oct-18 17:44 34.249240 -119.215895 301 33713ft 435kts
09-Oct-18 17:45 34.313392 -119.341062 300 33886ft 442kts
09-Oct-18 17:46 34.378724 -119.467722 304 33887ft 445kts
09-Oct-18 17:47 34.457023 -119.584078 309 33876ft 446kts
09-Oct-18 17:48 34.542336 -119.693378 312 33881ft 447kts
09-Oct-18 17:49 34.629546 -119.801355 312 33885ft 447kts
09-Oct-18 17:50 34.716580 -119.909145 312 33865ft 447kts
09-Oct-18 17:51 34.803828 -120.017577 312 33875ft 447kts
09-Oct-18 17:52 34.890789 -120.125968 312 33867ft 448kts
09-Oct-18 17:53 34.977970 -120.234985 312 33869ft 448kts
09-Oct-18 17:54 35.065156 -120.343743 313 33883ft 448kts
09-Oct-18 17:55 35.155620 -120.448230 314 33882ft 448kts
09-Oct-18 17:56 35.247589 -120.551839 315 33874ft 449kts
09-Oct-18 17:57 35.339378 -120.655184 315 33875ft 449kts
09-Oct-18 17:58 35.431256 -120.758935 315 33875ft 449kts
09-Oct-18 17:59 35.527357 -120.857015 319 33858ft 450kts
09-Oct-18 18:00 35.626852 -120.950967 320 33852ft 451kts
09-Oct-18 18:01 35.727000 -121.044363 320 33851ft 452kts
09-Oct-18 18:02 35.827149 -121.137943 320 33855ft 453kts
09-Oct-18 18:03 35.927032 -121.231562 320 32814ft 448kts
09-Oct-18 18:04 36.025795 -121.324390 321 30929ft 445kts
09-Oct-18 18:05 36.127515 -121.409660 324 29139ft 436kts
09-Oct-18 18:06 36.228457 -121.489396 325 27430ft 426kts
09-Oct-18 18:07 36.324647 -121.564780 325 25823ft 396kts
09-Oct-18 18:08 36.414671 -121.635522 325 24349ft 376kts
09-Oct-18 18:09 36.502000 -121.704318 325 22925ft 367kts
09-Oct-18 18:10 36.587448 -121.771882 325 21417ft 360kts
09-Oct-18 18:11 36.670450 -121.837653 326 20088ft 344kts
09-Oct-18 18:12 36.753460 -121.892913 341 17888ft 335kts
09-Oct-18 18:13 36.857439 -121.925854 345 15305ft 325kts
09-Oct-18 18:14 36.930330 -121.946766 346 13364ft 317kts
09-Oct-18 18:15 37.023141 -121.980807 343 12068ft 270kts
09-Oct-18 18:16 37.081285 -122.003495 342 10687ft 269kts
09-Oct-18 18:17 37.152251 -122.031229 342 9022ft 267kts
09-Oct-18 18:18 37.222634 -122.058795 341 8011ft 263kts
09-Oct-18 18:19 37.303928 -122.090728 341 7486ft 261kts
09-Oct-18 18:20 37.361150 -122.113305 341 6335ft 254kts
09-Oct-18 18:21 37.428812 -122.137142 342 5109ft 252kts
09-Oct-18 18:22 37.494474 -122.159741 342 3943ft 239kts
09-Oct-18 18:23 37.545293 -122.196457 293 2826ft 190kts
09-Oct-18 18:24 37.565422 -122.248172 296 1958ft 148kts
09-Oct-18 18:25 37.584442 -122.293223 298 1204ft 143kts
09-Oct-18 18:26 37.603019 -122.336480 293 439ft 142kts
09-Oct-18 18:27 37.618188 -122.373932 298 26ft 29kts
09-Oct-18 18:28 37.618946 -122.378266 263 26ft 7kts
09-Oct-18 18:29 37.617080 -122.379508 187 26ft 7kts
09-Oct-18 18:30 37.615490 -122.381431 337 26ft 9kts
09-Oct-18 18:31 37.616425 -122.381304 16 26ft 0kts
09-Oct-18 18:32 37.616425 -122.381304 16 26ft 0kts
09-Oct-18 18:33 37.616425 -122.381304 16 26ft 0kts

Navigation Log

Ident Type
Flight plan parsing failed, navigation log unavailable